Flugplatz Hannover

Bericht für EDDV

vom 27.06. um 08:20 UTC

Wind 10 kt aus 300°

Sichtweite 10 km oder mehr

aufgebrochene Bewölkung in 2200 ft

Temperatur 17.0°C

Taupunkt 9.0°C

Luftfeuchtigkeit 59%

Luftdruck 1027 hPa

keine wesentliche Wetteränderung innerhalb den nächsten 2 Stunden zu erwarten

EDDV 270820Z 30010KT 250V330 9999 BKN022 17/09 Q1027 NOSIG

Prognose für EDDV

vom 27.06. um 00:00 UTC

Zwischen 00:00 UTC und 00:00 UTC

Wind 10 kt aus 310°

Sichtweite 10 km oder mehr

aufgebrochene Bewölkung in 2000 ft


Zwischen 00:00 UTC und 00:00 UTC zeitweise

Wind 15 kt aus 320° in Böen 25 kt


Zwischen 00:00 und 00:00 UTC übergehend zu

Wind 5 kt aus 300°

Sichtweite 10 km oder mehr

aufgebrochene Bewölkung in 2000 ft

TAF EDDV 270500Z 2706/2806 31010KT 9999 BKN020 TEMPO 2709/2717 32015G25KT BECMG 2719/2721 30005KT
Impressum